Time;durP1;ratioP1;P1;durP2;ratioP2;P2;SDS_P1;SDS_P2;PMS_P1;PMS_P2;Temp;Humidity;BMP_temperature;BMP_pressure;BME280_temperature;BME280_humidity;BME280_pressure;Samples;Min_cycle;Max_cycle;Signal;HPM_P1;HPM_P2
2022/11/07 00:02:13;;;;;;;1.67;0.83;;;;;;;12.22;100.00;95465.78;5113703;28;20785;-53
2022/11/07 00:04:43;;;;;;;1.50;1.50;;;;;;;12.14;100.00;95463.72;5113759;28;20856;-54
2022/11/07 00:07:11;;;;;;;1.33;1.23;;;;;;;11.92;100.00;95469.41;5113713;28;20484;-53
2022/11/07 00:09:40;;;;;;;0.93;0.90;;;;;;;11.71;100.00;95456.50;5113343;28;20431;-53
2022/11/07 00:12:08;;;;;;;0.40;0.40;;;;;;;11.85;100.00;95473.44;5113565;28;20929;-53
2022/11/07 00:14:36;;;;;;;0.50;0.30;;;;;;;11.84;100.00;95469.22;5113602;28;20426;-54
2022/11/07 00:17:05;;;;;;;5.13;1.00;;;;;;;11.95;100.00;95460.91;5113458;28;20469;-54
2022/11/07 00:19:33;;;;;;;1.70;0.33;;;;;;;11.99;100.00;95467.25;5113530;28;20935;-54
2022/11/07 00:22:02;;;;;;;0.40;0.40;;;;;;;11.92;100.00;95476.59;5113097;28;20436;-53
2022/11/07 00:24:31;;;;;;;0.90;0.50;;;;;;;11.94;100.00;95474.47;5113383;28;20437;-53
2022/11/07 00:26:59;;;;;;;0.40;0.30;;;;;;;11.90;100.00;95473.41;5112907;28;20464;-53
2022/11/07 00:29:28;;;;;;;0.50;0.30;;;;;;;11.81;100.00;95472.41;5113087;28;20422;-53
2022/11/07 00:31:57;;;;;;;0.40;0.30;;;;;;;11.85;100.00;95457.50;5112919;28;20525;-53
2022/11/07 00:34:26;;;;;;;0.50;0.40;;;;;;;11.67;100.00;95469.50;5112972;28;20428;-58
2022/11/07 00:36:54;;;;;;;0.60;0.37;;;;;;;11.06;100.00;95476.03;5112768;27;20497;-53
2022/11/07 00:39:24;;;;;;;1.40;0.77;;;;;;;10.72;100.00;95475.81;5112792;28;20428;-54
2022/11/07 00:41:52;;;;;;;1.20;1.10;;;;;;;10.55;100.00;95478.72;5112775;28;20918;-53
2022/11/07 00:44:21;;;;;;;3.07;0.77;;;;;;;10.30;100.00;95412.47;5112657;28;20425;-53
2022/11/07 00:46:49;;;;;;;0.70;0.70;;;;;;;10.61;100.00;95475.00;5113331;28;20418;-53
2022/11/07 00:49:18;;;;;;;0.40;0.30;;;;;;;10.58;100.00;95462.28;5112051;28;20534;-53
2022/11/07 00:51:46;;;;;;;0.80;0.80;;;;;;;10.64;100.00;95476.34;5112974;28;20436;-53
2022/11/07 00:54:14;;;;;;;0.87;0.87;;;;;;;10.63;100.00;95482.69;5112973;28;20433;-53
2022/11/07 00:56:44;;;;;;;0.53;0.53;;;;;;;11.29;100.00;95481.56;5112771;28;20428;-53
2022/11/07 00:59:12;;;;;;;0.50;0.40;;;;;;;11.66;100.00;95489.16;5112839;28;20444;-53
2022/11/07 01:01:41;;;;;;;1.23;1.13;;;;;;;11.63;100.00;95467.66;5112567;28;20427;-53
2022/11/07 01:06:58;;;;;;;0.40;0.30;;;;;;;11.76;100.00;95488.34;5112449;28;20433;-54
2022/11/07 01:09:26;;;;;;;1.07;1.03;;;;;;;11.86;100.00;95485.66;5112479;28;20441;-53
2022/11/07 01:11:56;;;;;;;4.57;0.90;;;;;;;12.02;100.00;95489.81;5112751;28;20914;-54
2022/11/07 01:14:25;;;;;;;0.60;0.50;;;;;;;12.12;100.00;95484.44;5112416;28;20435;-53
2022/11/07 01:16:53;;;;;;;0.50;0.50;;;;;;;12.00;100.00;95474.16;5112251;28;20835;-53
2022/11/07 01:19:22;;;;;;;0.53;0.50;;;;;;;12.04;100.00;95498.31;5112699;28;20428;-53
2022/11/07 01:21:50;;;;;;;0.40;0.30;;;;;;;11.95;100.00;95494.63;5112365;28;20423;-53
2022/11/07 01:24:18;;;;;;;1.37;1.27;;;;;;;11.47;100.00;95485.50;5112339;28;20435;-53
2022/11/07 01:26:47;;;;;;;0.50;0.50;;;;;;;11.32;100.00;95493.50;5112391;28;20942;-53
2022/11/07 01:29:18;;;;;;;0.40;0.30;;;;;;;10.50;100.00;95427.59;5112274;28;20427;-53
2022/11/07 01:31:47;;;;;;;0.40;0.40;;;;;;;11.15;100.00;95507.06;5112429;28;20424;-53
2022/11/07 01:34:17;;;;;;;0.60;0.40;;;;;;;11.24;100.00;95504.66;5112702;28;20424;-53
2022/11/07 01:36:45;;;;;;;0.60;0.60;;;;;;;11.26;100.00;95489.25;5112496;28;20427;-53
2022/11/07 01:39:14;;;;;;;0.87;0.87;;;;;;;11.55;100.00;95506.19;5112175;28;20431;-53
2022/11/07 01:41:42;;;;;;;0.40;0.40;;;;;;;11.82;100.00;95506.63;5112272;28;20432;-53
2022/11/07 01:44:59;;;;;;;0.43;0.43;;;;;;;11.96;100.00;95505.00;5112324;28;20421;-53
2022/11/07 01:47:33;;;;;;;0.40;0.40;;;;;;;11.50;100.00;95410.66;5049198;28;20424;-53
2022/11/07 01:50:01;;;;;;;0.40;0.23;;;;;;;12.08;100.00;95499.34;5100519;28;20441;-53
2022/11/07 01:52:33;;;;;;;0.90;0.73;;;;;;;11.53;100.00;95495.03;5116390;28;20448;-53
2022/11/07 01:55:06;;;;;;;1.33;0.50;;;;;;;11.77;100.00;95505.84;5116254;28;20443;-53
2022/11/07 01:57:39;;;;;;;0.77;0.77;;;;;;;11.94;100.00;95507.13;5116271;28;20554;-53
2022/11/07 02:00:12;;;;;;;0.40;0.30;;;;;;;12.02;100.00;95498.59;5116240;27;20440;-53
2022/11/07 02:02:44;;;;;;;0.40;0.20;;;;;;;12.09;100.00;95492.97;5116049;28;20439;-53
2022/11/07 02:05:17;;;;;;;0.43;0.40;;;;;;;11.98;100.00;95497.56;5116065;28;20463;-53
2022/11/07 02:07:46;;;;;;;0.67;0.40;;;;;;;11.90;100.00;95494.66;5115672;28;20432;-53
2022/11/07 02:10:15;;;;;;;4.33;0.50;;;;;;;11.65;100.00;95510.66;5116081;28;20421;-53
2022/11/07 02:12:44;;;;;;;0.40;0.20;;;;;;;11.93;100.00;95507.41;5115913;28;20433;-53
2022/11/07 02:15:12;;;;;;;0.60;0.30;;;;;;;12.10;100.00;95502.53;5115844;28;20429;-51
2022/11/07 02:17:42;;;;;;;0.50;0.40;;;;;;;12.10;100.00;95502.53;5115677;28;20465;-51
2022/11/07 02:20:12;;;;;;;0.50;0.50;;;;;;;11.41;100.00;95503.28;5115425;28;20439;-54
2022/11/07 02:22:47;;;;;;;0.50;0.40;;;;;;;11.54;100.00;95501.94;5115687;28;20432;-51
2022/11/07 02:25:19;;;;;;;0.77;0.77;;;;;;;11.87;100.00;95500.50;5115394;28;20936;-52
2022/11/07 02:27:51;;;;;;;0.70;0.70;;;;;;;12.13;100.00;95498.53;5115291;28;20505;-51
2022/11/07 02:30:22;;;;;;;0.40;0.30;;;;;;;12.19;100.00;95497.44;5115591;28;20937;-52
2022/11/07 02:32:50;;;;;;;1.47;0.53;;;;;;;12.22;100.00;95496.91;5115248;28;20932;-52
2022/11/07 02:35:38;;;;;;;1.03;0.70;;;;;;;12.27;100.00;95497.66;5115420;27;20428;-52
2022/11/07 02:38:09;;;;;;;0.50;0.30;;;;;;;12.25;100.00;95497.13;5115052;28;20472;-52
2022/11/07 02:40:39;;;;;;;0.47;0.30;;;;;;;12.07;100.00;95500.41;5115314;28;20797;-52
2022/11/07 02:43:11;;;;;;;0.50;0.43;;;;;;;12.08;100.00;95499.34;5115072;28;20421;-52
2022/11/07 02:45:44;;;;;;;1.70;1.03;;;;;;;12.18;100.00;95501.97;5115298;28;20481;-52
2022/11/07 02:48:12;;;;;;;0.40;0.30;;;;;;;12.20;100.00;95507.00;5114765;28;20442;-52
2022/11/07 02:50:41;;;;;;;2.47;1.23;;;;;;;12.11;100.00;95506.78;5114571;28;20948;-53
2022/11/07 02:53:09;;;;;;;0.40;0.30;;;;;;;11.77;100.00;95498.69;5114907;28;20431;-52
2022/11/07 02:55:39;;;;;;;0.47;0.43;;;;;;;11.94;100.00;95507.13;5114444;28;20431;-52
2022/11/07 02:58:07;;;;;;;0.43;0.43;;;;;;;11.74;100.00;95511.75;5114696;28;20471;-52
2022/11/07 03:00:36;;;;;;;2.03;1.97;;;;;;;11.66;100.00;95513.06;5114794;28;20426;-52
2022/11/07 03:03:04;;;;;;;0.60;0.60;;;;;;;11.93;100.00;95502.09;5113143;28;20787;-52
2022/11/07 03:05:33;;;;;;;1.90;0.87;;;;;;;11.95;100.00;95506.06;5114647;28;20429;-52
2022/11/07 03:08:01;;;;;;;0.50;0.47;;;;;;;11.83;100.00;95508.25;5114697;28;20424;-52
2022/11/07 03:10:29;;;;;;;0.97;0.97;;;;;;;11.76;100.00;95520.22;5114165;28;20994;-52
2022/11/07 03:13:00;;;;;;;0.50;0.40;;;;;;;11.46;100.00;95519.19;5114624;28;20794;-52
2022/11/07 03:15:29;;;;;;;0.73;0.73;;;;;;;11.70;100.00;95522.09;5114099;28;20434;-52
2022/11/07 03:17:59;;;;;;;1.37;1.37;;;;;;;11.99;100.00;95511.63;5114399;27;20981;-52
2022/11/07 03:20:27;;;;;;;4.67;0.80;;;;;;;12.08;100.00;95510.78;5114279;28;20429;-52
2022/11/07 03:22:55;;;;;;;5.27;1.83;;;;;;;11.51;100.00;95507.00;5114079;28;20424;-52
2022/11/07 03:25:24;;;;;;;1.57;1.13;;;;;;;10.47;100.00;95481.13;5113711;28;20429;-52
2022/11/07 03:27:52;;;;;;;0.40;0.40;;;;;;;10.87;100.00;95504.19;5113968;28;20427;-52
2022/11/07 03:30:22;;;;;;;1.13;1.03;;;;;;;11.31;100.00;95515.78;5113788;28;20991;-52
2022/11/07 03:32:52;;;;;;;1.17;0.70;;;;;;;11.50;100.00;95516.81;5114095;28;20426;-52
2022/11/07 03:35:21;;;;;;;0.47;0.33;;;;;;;11.53;100.00;95502.22;5113576;28;20431;-52
2022/11/07 03:37:50;;;;;;;0.50;0.50;;;;;;;11.58;100.00;95512.81;5113024;28;20434;-52
2022/11/07 03:40:18;;;;;;;0.40;0.20;;;;;;;11.65;100.00;95513.31;5113773;28;20443;-52
2022/11/07 03:42:46;;;;;;;0.40;0.30;;;;;;;11.58;100.00;95512.81;5113870;28;20420;-51
2022/11/07 03:45:16;;;;;;;0.43;0.30;;;;;;;11.68;100.00;95512.78;5113863;28;20819;-53
2022/11/07 03:47:47;;;;;;;0.60;0.40;;;;;;;11.78;100.00;95516.22;5113696;28;20426;-52
2022/11/07 03:50:17;;;;;;;2.60;2.40;;;;;;;11.67;100.00;95524.44;5113539;28;20916;-52
2022/11/07 03:52:46;;;;;;;5.73;2.63;;;;;;;11.63;100.00;95526.06;5113495;28;20433;-52
2022/11/07 03:55:17;;;;;;;2.70;2.10;;;;;;;11.75;100.00;95515.97;5113243;28;20442;-52
2022/11/07 03:57:46;;;;;;;13.43;5.70;;;;;;;11.85;100.00;95518.59;5113377;28;20981;-52
2022/11/07 04:00:16;;;;;;;8.93;1.60;;;;;;;11.94;100.00;95509.78;5113633;28;20984;-52
2022/11/07 04:02:46;;;;;;;2.10;0.83;;;;;;;11.53;100.00;95521.59;5113290;28;20424;-52
2022/11/07 04:05:14;;;;;;;1.53;0.67;;;;;;;11.24;100.00;95512.63;5112975;28;20445;-52
2022/11/07 04:07:43;;;;;;;1.60;1.50;;;;;;;11.11;100.00;95523.78;5113170;28;20922;-52
2022/11/07 04:10:11;;;;;;;1.97;1.10;;;;;;;11.18;100.00;95524.31;5113049;28;20429;-52
2022/11/07 04:18:12;;;;;;;0.50;0.50;;;;;;;11.46;100.00;95518.41;5112291;28;20442;-52
2022/11/07 04:20:40;;;;;;;0.50;0.50;;;;;;;11.31;100.00;95519.22;5112892;28;20433;-52
2022/11/07 04:23:09;;;;;;;0.50;0.30;;;;;;;11.32;100.00;95517.38;5112496;28;20429;-52
2022/11/07 04:28:22;;;;;;;0.40;0.30;;;;;;;11.81;100.00;95522.84;5112908;28;20436;-52
2022/11/07 04:30:51;;;;;;;0.60;0.50;;;;;;;11.11;100.00;95413.16;5112592;28;20436;-52
2022/11/07 04:33:21;;;;;;;0.40;0.30;;;;;;;11.67;100.00;95522.59;5112862;27;20428;-59
2022/11/07 04:35:50;;;;;;;1.70;1.70;;;;;;;11.43;100.00;95511.00;5112412;28;20434;-52
2022/11/07 04:38:18;;;;;;;2.33;0.60;;;;;;;10.84;100.00;95516.09;5112023;28;20424;-52
2022/11/07 04:40:53;;;;;;;0.50;0.30;;;;;;;10.57;100.00;95504.97;5112792;28;20440;-52
2022/11/07 04:43:21;;;;;;;0.80;0.80;;;;;;;10.40;100.00;95505.19;5112665;28;20425;-52
2022/11/07 04:45:50;;;;;;;0.77;0.77;;;;;;;10.84;100.00;95508.97;5112740;28;20464;-52
2022/11/07 04:48:18;;;;;;;0.80;0.80;;;;;;;10.04;100.00;95466.44;5112265;28;20433;-52
2022/11/07 04:50:49;;;;;;;0.70;0.60;;;;;;;10.36;100.00;95511.28;5112142;28;20437;-52
2022/11/07 04:53:18;;;;;;;0.40;0.40;;;;;;;10.61;100.00;95520.06;5112718;28;20779;-52
2022/11/07 04:55:46;;;;;;;0.47;0.30;;;;;;;10.55;100.00;95504.44;5112432;28;20424;-52
2022/11/07 04:58:15;;;;;;;0.50;0.50;;;;;;;10.52;100.00;95528.81;5112024;28;20429;-52
2022/11/07 05:00:43;;;;;;;0.60;0.60;;;;;;;9.93;100.00;95525.72;5112031;28;20480;-52
2022/11/07 05:03:11;;;;;;;1.17;0.47;;;;;;;9.38;100.00;95539.50;5112104;28;20459;-51
2022/11/07 05:05:40;;;;;;;0.87;0.73;;;;;;;9.55;100.00;95540.13;5112102;28;20427;-51
2022/11/07 05:08:10;;;;;;;0.93;0.93;;;;;;;9.92;100.00;95546.09;5112374;28;20429;-52
2022/11/07 05:10:39;;;;;;;0.53;0.47;;;;;;;9.64;100.00;95525.31;5112329;28;20420;-52
2022/11/07 05:13:07;;;;;;;0.53;0.53;;;;;;;9.97;100.00;95546.13;5112132;28;20447;-52
2022/11/07 05:15:36;;;;;;;0.63;0.60;;;;;;;10.40;100.00;95552.13;5112303;28;20427;-52
2022/11/07 05:18:04;;;;;;;1.53;1.50;;;;;;;10.26;100.00;95551.00;5112018;28;20501;-52
2022/11/07 05:20:35;;;;;;;0.70;0.70;;;;;;;10.48;100.00;95556.88;5111600;28;21005;-52
2022/11/07 05:23:16;;;;;;;0.43;0.43;;;;;;;10.58;100.00;95583.41;5111826;28;20428;-52
2022/11/07 05:25:48;;;;;;;0.43;0.43;;;;;;;10.39;100.00;95553.16;5112636;28;20475;-52
2022/11/07 05:28:18;;;;;;;0.47;0.37;;;;;;;10.60;100.00;95560.09;5116044;28;20427;-52
2022/11/07 05:30:59;;;;;;;0.97;0.50;;;;;;;10.66;100.00;95562.50;5114660;27;20416;-52
2022/11/07 05:33:28;;;;;;;0.40;0.40;;;;;;;10.79;100.00;95561.19;5115605;28;20433;-51
2022/11/07 05:35:56;;;;;;;1.57;0.40;;;;;;;11.09;100.00;95568.34;5115848;28;20430;-51
2022/11/07 05:38:24;;;;;;;0.70;0.70;;;;;;;11.06;100.00;95555.59;5115646;28;20442;-51
2022/11/07 05:40:55;;;;;;;0.50;0.50;;;;;;;11.34;100.00;95571.78;5115696;28;20467;-51
2022/11/07 05:43:24;;;;;;;1.53;1.47;;;;;;;9.59;100.00;95281.88;5116029;28;20444;-52
2022/11/07 05:45:52;;;;;;;2.30;2.20;;;;;;;10.55;100.00;95589.25;5116242;28;20425;-52
2022/11/07 05:48:20;;;;;;;2.20;2.10;;;;;;;10.30;100.00;95589.16;5115476;28;20431;-51
2022/11/07 05:50:48;;;;;;;3.00;2.80;;;;;;;10.54;100.00;95582.34;5115815;28;20431;-52
2022/11/07 05:53:19;;;;;;;2.97;2.67;;;;;;;10.55;100.00;95590.03;5115813;28;20424;-52
2022/11/07 05:55:48;;;;;;;5.70;5.30;;;;;;;10.05;100.00;95605.72;5115555;28;20463;-51
2022/11/07 05:58:19;;;;;;;3.70;3.40;;;;;;;9.79;100.00;95601.38;5115879;28;20424;-52
2022/11/07 06:00:48;;;;;;;2.87;2.77;;;;;;;9.86;100.00;95552.44;5115211;28;20479;-52
2022/11/07 06:03:18;;;;;;;2.70;2.50;;;;;;;10.56;100.00;95612.03;5115091;28;20437;-52
2022/11/07 06:05:47;;;;;;;0.93;0.87;;;;;;;10.77;100.00;95611.03;5115613;28;20428;-52
2022/11/07 06:08:16;;;;;;;1.20;1.10;;;;;;;10.67;100.00;95611.00;5115379;28;20425;-52
2022/11/07 06:10:44;;;;;;;0.80;0.80;;;;;;;10.90;100.00;95642.34;5115488;28;20433;-52
2022/11/07 06:13:15;;;;;;;0.60;0.50;;;;;;;10.85;100.00;95627.19;5115181;28;20433;-52
2022/11/07 06:15:46;;;;;;;1.37;1.27;;;;;;;11.01;100.00;95632.50;5115090;28;20498;-52
2022/11/07 06:18:16;;;;;;;1.73;1.63;;;;;;;10.96;100.00;95600.69;5115068;28;20955;-52
2022/11/07 06:20:44;;;;;;;1.10;1.10;;;;;;;11.59;100.00;95641.81;5114974;28;20484;-52
2022/11/07 06:23:13;;;;;;;1.07;1.07;;;;;;;10.23;100.00;95512.59;5115382;28;20446;-52
2022/11/07 06:25:42;;;;;;;3.13;1.77;;;;;;;11.13;100.00;95643.69;5114909;28;20511;-52
2022/11/07 06:28:12;;;;;;;1.20;1.10;;;;;;;11.66;100.00;95637.84;5115104;28;20436;-52
2022/11/07 06:30:41;;;;;;;0.80;0.80;;;;;;;11.52;100.00;95634.13;5115305;28;20420;-52
2022/11/07 06:33:13;;;;;;;1.13;1.13;;;;;;;11.54;100.00;95647.13;5114409;28;20435;-52
2022/11/07 06:35:43;;;;;;;2.60;2.40;;;;;;;11.76;100.00;95655.66;5114732;28;20493;-52
2022/11/07 06:38:13;;;;;;;2.97;2.20;;;;;;;11.94;100.00;95653.22;5115075;28;20437;-53
2022/11/07 06:40:41;;;;;;;1.10;1.00;;;;;;;12.02;100.00;95657.16;5113950;28;20474;-52
2022/11/07 06:43:12;;;;;;;0.80;0.73;;;;;;;12.00;100.00;95657.44;5114571;28;20433;-52
2022/11/07 06:45:42;;;;;;;1.07;1.07;;;;;;;11.98;100.00;95658.78;5115076;28;20426;-52
2022/11/07 06:48:12;;;;;;;2.00;1.90;;;;;;;11.72;100.00;95662.53;5114870;28;20919;-52
2022/11/07 06:50:40;;;;;;;6.10;2.47;;;;;;;11.91;100.00;95668.91;5115074;28;20421;-52
2022/11/07 06:53:11;;;;;;;0.87;0.87;;;;;;;11.83;100.00;95674.75;5114322;28;20431;-52
2022/11/07 06:55:40;;;;;;;0.77;0.77;;;;;;;12.06;100.00;95668.88;5114540;28;20454;-52
2022/11/07 06:58:09;;;;;;;2.70;2.60;;;;;;;12.05;100.00;95672.56;5114028;27;20910;-52
2022/11/07 07:00:37;;;;;;;2.80;2.60;;;;;;;12.06;100.00;95669.66;5114320;28;20473;-52
2022/11/07 07:03:06;;;;;;;2.60;2.40;;;;;;;12.70;100.00;95674.19;5114091;28;20942;-52
2022/11/07 07:05:36;;;;;;;0.83;0.83;;;;;;;13.20;100.00;95671.31;5114470;28;20464;-52
2022/11/07 07:08:05;;;;;;;1.20;0.90;;;;;;;12.93;100.00;95670.13;5114197;28;20431;-52
2022/11/07 07:10:37;;;;;;;2.43;1.53;;;;;;;13.24;100.00;95674.19;5113763;27;20930;-52
2022/11/07 07:13:06;;;;;;;1.77;1.07;;;;;;;13.72;100.00;95677.81;5114343;28;20499;-52
2022/11/07 07:15:34;;;;;;;1.33;1.33;;;;;;;13.80;100.00;95675.34;5113980;28;20773;-52
2022/11/07 07:18:17;;;;;;;0.90;0.90;;;;;;;13.95;100.00;95664.56;5113744;28;20428;-53
2022/11/07 07:20:47;;;;;;;0.67;0.60;;;;;;;15.08;97.78;95661.09;5113588;28;20464;-51
2022/11/07 07:23:15;;;;;;;4.43;3.77;;;;;;;15.45;90.50;95657.66;5113760;28;20609;-51
2022/11/07 07:25:44;;;;;;;6.43;1.70;;;;;;;15.36;90.46;95663.88;5113730;28;20589;-51
2022/11/07 07:28:13;;;;;;;2.07;1.53;;;;;;;15.03;90.64;95647.81;5113600;28;20460;-52
2022/11/07 07:30:41;;;;;;;2.20;0.80;;;;;;;15.33;89.84;95659.16;5113956;28;20432;-52
2022/11/07 07:33:17;;;;;;;5.33;3.70;;;;;;;14.88;88.31;95602.66;5113782;28;20433;-52
2022/11/07 07:35:47;;;;;;;1.67;1.60;;;;;;;15.23;89.09;95652.06;5112943;28;20430;-53
2022/11/07 07:38:15;;;;;;;2.40;2.10;;;;;;;15.95;88.41;95647.97;5113457;28;20440;-54
2022/11/07 07:40:44;;;;;;;4.63;2.50;;;;;;;16.50;82.00;95600.63;5113649;28;20481;-54
2022/11/07 07:43:12;;;;;;;2.43;2.00;;;;;;;17.32;82.18;95637.97;5113610;28;20424;-54
2022/11/07 07:45:41;;;;;;;1.70;0.93;;;;;;;17.30;79.08;95632.94;5113034;28;20510;-54
2022/11/07 07:48:09;;;;;;;1.87;1.17;;;;;;;17.06;76.84;95643.91;5112512;27;20455;-54
2022/11/07 07:50:37;;;;;;;1.20;1.17;;;;;;;17.19;79.48;95639.59;5113206;28;20422;-54
2022/11/07 07:53:07;;;;;;;1.37;1.27;;;;;;;18.30;73.51;95634.16;5113093;28;20458;-54
2022/11/07 07:55:40;;;;;;;2.30;0.97;;;;;;;18.78;74.15;95634.97;5112901;28;20423;-54
2022/11/07 07:58:09;;;;;;;0.90;0.90;;;;;;;19.15;71.76;95606.72;5112958;28;20427;-54
2022/11/07 08:00:38;;;;;;;5.43;2.50;;;;;;;19.56;70.37;95625.88;5112698;28;20956;-54
2022/11/07 08:03:08;;;;;;;1.80;1.10;;;;;;;19.95;68.49;95622.19;5112936;28;20424;-55
2022/11/07 08:05:37;;;;;;;2.70;2.60;;;;;;;20.24;65.44;95587.28;5113265;28;20419;-53
2022/11/07 08:08:09;;;;;;;1.87;1.70;;;;;;;20.63;63.27;95641.91;5113229;28;20424;-54
2022/11/07 08:10:38;;;;;;;2.10;2.00;;;;;;;21.35;60.46;95630.88;5112683;28;20446;-54
2022/11/07 08:13:10;;;;;;;1.73;1.63;;;;;;;21.63;61.45;95639.97;5112488;28;20515;-53
2022/11/07 08:15:38;;;;;;;3.83;1.90;;;;;;;22.37;56.02;95633.66;5112792;28;20420;-52
2022/11/07 08:18:07;;;;;;;7.40;3.23;;;;;;;21.93;57.28;95630.69;5112948;28;20428;-53
2022/11/07 08:20:35;;;;;;;1.53;1.40;;;;;;;21.69;57.48;95646.75;5112797;28;20428;-54
2022/11/07 08:23:05;;;;;;;1.07;0.80;;;;;;;21.90;54.96;95649.44;5112597;28;20424;-53
2022/11/07 08:25:41;;;;;;;1.37;1.30;;;;;;;21.90;56.35;95638.66;5112624;28;20480;-52
2022/11/07 08:28:09;;;;;;;1.13;1.00;;;;;;;22.47;54.38;95635.94;5112373;28;20432;-52
2022/11/07 08:30:38;;;;;;;2.53;2.33;;;;;;;23.14;54.08;95636.16;5112394;28;20908;-52
2022/11/07 08:33:06;;;;;;;11.60;2.43;;;;;;;23.22;54.99;95631.75;5112498;28;20779;-52
2022/11/07 08:35:34;;;;;;;3.10;2.93;;;;;;;23.71;52.04;95624.28;5112384;27;20912;-53
2022/11/07 08:38:09;;;;;;;1.67;1.57;;;;;;;23.41;54.80;95628.47;5112555;28;20427;-52
2022/11/07 08:40:39;;;;;;;1.07;1.07;;;;;;;23.80;51.74;95620.31;5112442;28;20428;-52
2022/11/07 08:43:08;;;;;;;3.23;1.53;;;;;;;23.78;55.76;95630.69;5112270;28;20423;-52
2022/11/07 08:45:36;;;;;;;3.80;1.77;;;;;;;23.50;52.48;95639.94;5112433;28;20830;-52
2022/11/07 08:48:05;;;;;;;1.07;1.00;;;;;;;23.94;51.20;95628.81;5112350;28;20431;-52
2022/11/07 08:50:33;;;;;;;2.63;2.40;;;;;;;23.50;51.69;95635.34;5112337;28;20432;-53
2022/11/07 08:53:02;;;;;;;1.83;1.00;;;;;;;24.21;49.87;95626.44;5112259;28;20435;-52
2022/11/07 08:55:30;;;;;;;0.70;0.67;;;;;;;24.67;50.45;95620.22;5112259;28;20808;-52
2022/11/07 08:58:02;;;;;;;1.27;0.90;;;;;;;25.32;50.13;95631.44;5112123;28;20428;-52
2022/11/07 09:00:33;;;;;;;1.70;1.60;;;;;;;24.48;48.09;95587.66;5111272;28;20420;-52
2022/11/07 09:03:03;;;;;;;4.40;2.57;;;;;;;24.24;49.44;95575.06;5111898;28;20472;-52
2022/11/07 09:05:51;;;;;;;15.53;1.83;;;;;;;24.41;49.57;95622.72;5111683;28;20432;-52
2022/11/07 09:08:19;;;;;;;1.37;0.93;;;;;;;24.60;47.44;95585.63;5112306;28;20791;-52
2022/11/07 09:10:48;;;;;;;1.67;1.57;;;;;;;24.95;48.22;95615.50;5112447;28;20428;-52
2022/11/07 09:13:19;;;;;;;0.93;0.93;;;;;;;25.25;49.64;95616.56;5111648;28;20431;-52
2022/11/07 09:15:48;;;;;;;1.27;1.20;;;;;;;25.18;47.81;95618.34;5111927;28;20424;-52
2022/11/07 09:18:19;;;;;;;3.43;2.10;;;;;;;25.62;47.30;95621.63;5112066;28;20440;-52
2022/11/07 09:20:47;;;;;;;1.80;1.40;;;;;;;24.76;47.89;95615.44;5112445;28;20430;-52
2022/11/07 09:23:15;;;;;;;0.60;0.60;;;;;;;24.99;47.74;95621.03;5111635;28;20605;-53
2022/11/07 09:25:44;;;;;;;2.43;2.23;;;;;;;25.38;47.69;95603.66;5111758;28;20495;-53
2022/11/07 09:28:13;;;;;;;4.10;1.33;;;;;;;24.52;49.57;95612.91;5111804;28;20428;-53
2022/11/07 09:30:42;;;;;;;1.63;0.87;;;;;;;24.88;48.43;95603.72;5112013;28;20424;-53
2022/11/07 09:33:11;;;;;;;2.13;1.33;;;;;;;25.39;47.45;95609.88;5111650;28;20818;-53
2022/11/07 09:35:40;;;;;;;2.47;1.63;;;;;;;25.38;48.29;95597.44;5111650;28;20522;-53
2022/11/07 09:38:08;;;;;;;1.10;1.03;;;;;;;25.36;47.52;95603.22;5111828;28;20447;-53
2022/11/07 09:40:47;;;;;;;3.40;1.10;;;;;;;25.90;46.86;95599.66;5111812;28;20435;-52
2022/11/07 09:43:38;;;;;;;1.10;1.10;;;;;;;26.20;46.60;95593.28;5111952;28;20473;-53
2022/11/07 09:46:21;;;;;;;1.63;1.53;;;;;;;26.60;47.19;95589.25;5111580;28;20974;-52
2022/11/07 09:48:54;;;;;;;1.30;1.20;;;;;;;27.34;45.28;95577.56;5111958;28;20438;-51
2022/11/07 09:51:34;;;;;;;0.97;0.97;;;;;;;27.05;43.87;95575.59;5111617;28;20882;-52
2022/11/07 09:54:08;;;;;;;1.57;1.53;;;;;;;26.43;44.31;95576.97;5111906;28;20424;-52
2022/11/07 09:56:36;;;;;;;1.33;1.23;;;;;;;26.33;43.13;95534.88;5111427;28;20927;-53
2022/11/07 09:59:07;;;;;;;1.27;1.27;;;;;;;27.39;43.21;95579.97;5111772;28;20503;-51
2022/11/07 10:01:42;;;;;;;4.30;1.33;;;;;;;27.23;43.36;95568.44;5111685;28;20911;-51
2022/11/07 10:04:16;;;;;;;1.40;1.30;;;;;;;26.36;43.72;95583.06;5111696;28;20424;-51
2022/11/07 10:06:59;;;;;;;0.83;0.83;;;;;;;26.17;44.87;95561.38;5110932;28;20450;-53
2022/11/07 10:09:37;;;;;;;2.10;1.50;;;;;;;25.88;43.99;95582.94;5111622;28;20419;-52
2022/11/07 10:12:16;;;;;;;0.87;0.87;;;;;;;26.09;44.17;95570.53;5112919;28;20432;-52
2022/11/07 10:14:54;;;;;;;1.00;0.90;;;;;;;27.23;43.98;95563.00;5115019;28;20425;-52
2022/11/07 10:17:34;;;;;;;1.40;1.30;;;;;;;27.24;42.80;95559.16;5115282;28;20426;-52
2022/11/07 10:20:13;;;;;;;4.37;1.70;;;;;;;26.99;42.80;95552.59;5114907;28;20420;-52
2022/11/07 10:22:55;;;;;;;2.17;2.07;;;;;;;26.45;44.08;95553.72;5114770;28;20467;-51
2022/11/07 10:25:30;;;;;;;1.47;1.07;;;;;;;27.69;41.89;95542.59;5114179;28;20432;-52
2022/11/07 10:28:13;;;;;;;2.00;0.90;;;;;;;27.99;41.80;95533.53;5114689;28;20423;-52
2022/11/07 10:30:43;;;;;;;1.00;1.00;;;;;;;28.77;41.62;95533.06;5114901;28;20587;-52
2022/11/07 10:33:27;;;;;;;2.00;1.90;;;;;;;27.76;41.01;95538.38;5114694;27;20905;-52
2022/11/07 10:36:01;;;;;;;1.13;1.03;;;;;;;27.86;40.93;95554.03;5114851;28;20443;-52
2022/11/07 10:38:32;;;;;;;0.97;0.60;;;;;;;28.62;39.82;95530.63;5114931;28;20435;-52
2022/11/07 10:41:00;;;;;;;0.83;0.80;;;;;;;29.52;39.33;95528.81;5114944;28;20490;-52
2022/11/07 10:43:34;;;;;;;0.80;0.80;;;;;;;28.90;39.11;95528.88;5114497;28;20481;-51
2022/11/07 10:46:03;;;;;;;1.00;1.00;;;;;;;29.55;39.28;95511.63;5114955;28;20800;-52
2022/11/07 10:48:33;;;;;;;0.50;0.50;;;;;;;29.15;41.47;95511.81;5114344;28;20433;-52
2022/11/07 10:51:01;;;;;;;1.33;1.20;;;;;;;29.49;40.19;95511.22;5114503;28;20434;-52
2022/11/07 10:53:29;;;;;;;0.50;0.43;;;;;;;30.55;36.99;95507.88;5114732;28;20432;-51
2022/11/07 10:55:58;;;;;;;1.63;1.53;;;;;;;30.31;37.18;95511.41;5113950;28;20761;-52
2022/11/07 10:58:30;;;;;;;1.10;1.03;;;;;;;29.22;38.03;95501.00;5114545;28;20935;-52
2022/11/07 11:01:04;;;;;;;1.57;1.47;;;;;;;28.49;37.79;95505.56;5114197;28;20427;-52
2022/11/07 11:03:39;;;;;;;1.20;1.10;;;;;;;27.76;38.94;95503.75;5114287;28;20475;-52
2022/11/07 11:06:29;;;;;;;2.30;2.20;;;;;;;27.14;39.21;95466.47;5114508;28;20488;-52
2022/11/07 11:08:58;;;;;;;1.17;1.17;;;;;;;26.88;38.88;95497.25;5114224;27;20427;-52
2022/11/07 11:11:30;;;;;;;1.83;1.73;;;;;;;27.97;38.81;95454.13;5114116;27;20427;-52
2022/11/07 11:14:04;;;;;;;0.57;0.57;;;;;;;28.53;38.96;95494.69;5114065;28;20427;-52
2022/11/07 11:16:37;;;;;;;1.40;1.30;;;;;;;28.97;36.82;95453.66;5113973;28;20790;-52
2022/11/07 11:19:19;;;;;;;0.90;0.90;;;;;;;29.24;36.76;95490.47;5114290;28;20430;-52
2022/11/07 11:21:49;;;;;;;1.43;1.33;;;;;;;29.28;36.56;95493.97;5114102;28;20446;-52
2022/11/07 11:24:31;;;;;;;1.40;1.20;;;;;;;29.66;37.14;95482.38;5112842;28;20471;-52
2022/11/07 11:27:04;;;;;;;1.93;1.47;;;;;;;29.83;35.06;95475.44;5113538;28;20809;-52
2022/11/07 11:29:43;;;;;;;1.00;1.00;;;;;;;29.23;36.27;95476.03;5113679;28;20904;-52
2022/11/07 11:32:20;;;;;;;1.80;1.67;;;;;;;29.40;35.38;95477.22;5113895;27;20423;-51
2022/11/07 11:35:02;;;;;;;1.20;0.77;;;;;;;29.89;35.00;95473.88;5113563;27;20463;-51
2022/11/07 11:37:35;;;;;;;0.83;0.80;;;;;;;29.38;34.14;95466.72;5113828;28;20503;-52
2022/11/07 11:40:15;;;;;;;0.80;0.80;;;;;;;28.72;35.03;95458.97;5113314;28;20486;-53
2022/11/07 11:42:50;;;;;;;0.53;0.53;;;;;;;29.09;34.86;95453.31;5113196;28;20499;-52
2022/11/07 11:45:27;;;;;;;1.13;1.03;;;;;;;30.20;34.38;95451.22;5113592;28;20512;-52
2022/11/07 11:48:02;;;;;;;1.40;1.30;;;;;;;28.98;34.50;95450.53;5113181;28;20510;-52
2022/11/07 11:50:41;;;;;;;1.87;1.80;;;;;;;29.78;34.27;95453.97;5113632;28;20423;-52
2022/11/07 11:53:15;;;;;;;0.83;0.83;;;;;;;30.02;35.30;95429.38;5113144;28;20441;-52
2022/11/07 11:55:53;;;;;;;1.23;1.23;;;;;;;29.70;33.77;95427.75;5113062;28;20427;-52
2022/11/07 11:58:35;;;;;;;1.17;1.10;;;;;;;29.49;34.07;95436.69;5113116;28;20415;-51